sensor_id;sensor_type;location;lat;lon;timestamp;P1;durP1;ratioP1;P2;durP2;ratioP2
55575;SDS011;41437;45.478;9.116;2023-05-29T00:01:14;10.98;;;5.20;;
55575;SDS011;41437;45.478;9.116;2023-05-29T00:04:18;8.70;;;5.28;;
55575;SDS011;41437;45.478;9.116;2023-05-29T00:07:21;9.57;;;5.53;;
55575;SDS011;41437;45.478;9.116;2023-05-29T00:10:23;7.57;;;4.70;;
55575;SDS011;41437;45.478;9.116;2023-05-29T00:13:24;8.90;;;4.80;;
55575;SDS011;41437;45.478;9.116;2023-05-29T00:16:27;8.57;;;5.28;;
55575;SDS011;41437;45.478;9.116;2023-05-29T00:22:30;8.23;;;4.50;;
55575;SDS011;41437;45.478;9.116;2023-05-29T00:25:31;6.57;;;4.00;;
55575;SDS011;41437;45.478;9.116;2023-05-29T00:28:33;5.93;;;3.92;;
55575;SDS011;41437;45.478;9.116;2023-05-29T00:31:37;7.63;;;4.32;;
55575;SDS011;41437;45.478;9.116;2023-05-29T00:34:38;6.20;;;3.83;;
55575;SDS011;41437;45.478;9.116;2023-05-29T00:37:40;7.20;;;4.00;;
55575;SDS011;41437;45.478;9.116;2023-05-29T00:40:41;8.65;;;4.28;;
55575;SDS011;41437;45.478;9.116;2023-05-29T00:43:43;6.68;;;4.10;;
55575;SDS011;41437;45.478;9.116;2023-05-29T00:46:45;6.45;;;3.63;;
55575;SDS011;41437;45.478;9.116;2023-05-29T00:49:47;6.10;;;3.83;;
55575;SDS011;41437;45.478;9.116;2023-05-29T00:52:48;6.40;;;4.20;;
55575;SDS011;41437;45.478;9.116;2023-05-29T00:55:51;8.15;;;4.10;;
55575;SDS011;41437;45.478;9.116;2023-05-29T00:58:53;5.95;;;3.80;;
55575;SDS011;41437;45.478;9.116;2023-05-29T01:01:55;5.68;;;3.83;;
55575;SDS011;41437;45.478;9.116;2023-05-29T01:04:58;5.88;;;3.63;;
55575;SDS011;41437;45.478;9.116;2023-05-29T01:08:00;5.78;;;3.75;;
55575;SDS011;41437;45.478;9.116;2023-05-29T01:11:04;6.50;;;4.13;;
55575;SDS011;41437;45.478;9.116;2023-05-29T01:14:09;7.28;;;4.30;;
55575;SDS011;41437;45.478;9.116;2023-05-29T01:17:17;9.30;;;4.60;;
55575;SDS011;41437;45.478;9.116;2023-05-29T01:20:23;6.93;;;4.75;;
55575;SDS011;41437;45.478;9.116;2023-05-29T01:23:38;6.65;;;3.95;;
55575;SDS011;41437;45.478;9.116;2023-05-29T01:26:45;6.82;;;4.25;;
55575;SDS011;41437;45.478;9.116;2023-05-29T01:29:46;7.13;;;5.05;;
55575;SDS011;41437;45.478;9.116;2023-05-29T01:32:48;6.80;;;4.80;;
55575;SDS011;41437;45.478;9.116;2023-05-29T01:35:50;6.72;;;4.63;;
55575;SDS011;41437;45.478;9.116;2023-05-29T01:38:52;7.45;;;5.32;;
55575;SDS011;41437;45.478;9.116;2023-05-29T01:41:55;6.53;;;4.50;;
55575;SDS011;41437;45.478;9.116;2023-05-29T01:44:57;7.50;;;4.70;;
55575;SDS011;41437;45.478;9.116;2023-05-29T01:47:58;8.05;;;4.70;;
55575;SDS011;41437;45.478;9.116;2023-05-29T01:51:00;7.35;;;4.85;;
55575;SDS011;41437;45.478;9.116;2023-05-29T01:54:01;7.90;;;4.95;;
55575;SDS011;41437;45.478;9.116;2023-05-29T01:57:04;7.45;;;4.75;;
55575;SDS011;41437;45.478;9.116;2023-05-29T02:00:07;7.90;;;5.15;;
55575;SDS011;41437;45.478;9.116;2023-05-29T02:03:09;7.70;;;4.95;;
55575;SDS011;41437;45.478;9.116;2023-05-29T02:06:10;7.82;;;4.80;;
55575;SDS011;41437;45.478;9.116;2023-05-29T02:09:12;7.45;;;5.20;;
55575;SDS011;41437;45.478;9.116;2023-05-29T02:12:14;8.82;;;5.60;;
55575;SDS011;41437;45.478;9.116;2023-05-29T02:15:16;7.70;;;5.43;;
55575;SDS011;41437;45.478;9.116;2023-05-29T02:18:17;8.13;;;5.78;;
55575;SDS011;41437;45.478;9.116;2023-05-29T02:21:19;9.13;;;6.10;;
55575;SDS011;41437;45.478;9.116;2023-05-29T02:24:20;8.77;;;6.00;;
55575;SDS011;41437;45.478;9.116;2023-05-29T02:27:23;8.85;;;5.97;;
55575;SDS011;41437;45.478;9.116;2023-05-29T02:30:24;8.82;;;5.65;;
55575;SDS011;41437;45.478;9.116;2023-05-29T02:33:26;7.60;;;5.30;;
55575;SDS011;41437;45.478;9.116;2023-05-29T02:36:27;8.07;;;5.80;;
55575;SDS011;41437;45.478;9.116;2023-05-29T02:39:28;9.15;;;6.15;;
55575;SDS011;41437;45.478;9.116;2023-05-29T02:42:31;9.85;;;6.03;;
55575;SDS011;41437;45.478;9.116;2023-05-29T02:45:33;9.37;;;6.20;;
55575;SDS011;41437;45.478;9.116;2023-05-29T02:48:34;9.35;;;6.38;;
55575;SDS011;41437;45.478;9.116;2023-05-29T02:51:35;10.23;;;6.60;;
55575;SDS011;41437;45.478;9.116;2023-05-29T02:54:37;11.23;;;7.20;;
55575;SDS011;41437;45.478;9.116;2023-05-29T02:57:40;10.75;;;6.60;;
55575;SDS011;41437;45.478;9.116;2023-05-29T03:00:41;8.63;;;6.70;;
55575;SDS011;41437;45.478;9.116;2023-05-29T03:03:43;11.95;;;6.50;;
55575;SDS011;41437;45.478;9.116;2023-05-29T03:06:44;9.20;;;6.13;;
55575;SDS011;41437;45.478;9.116;2023-05-29T03:09:45;10.88;;;6.57;;
55575;SDS011;41437;45.478;9.116;2023-05-29T03:12:48;10.82;;;6.50;;
55575;SDS011;41437;45.478;9.116;2023-05-29T03:15:51;10.80;;;6.47;;
55575;SDS011;41437;45.478;9.116;2023-05-29T03:18:56;9.75;;;6.93;;
55575;SDS011;41437;45.478;9.116;2023-05-29T03:21:57;9.25;;;6.53;;
55575;SDS011;41437;45.478;9.116;2023-05-29T03:24:59;8.85;;;6.35;;
55575;SDS011;41437;45.478;9.116;2023-05-29T03:28:02;8.32;;;6.10;;
55575;SDS011;41437;45.478;9.116;2023-05-29T03:31:03;8.10;;;6.10;;
55575;SDS011;41437;45.478;9.116;2023-05-29T03:34:05;9.73;;;5.95;;
55575;SDS011;41437;45.478;9.116;2023-05-29T03:37:06;9.05;;;6.00;;
55575;SDS011;41437;45.478;9.116;2023-05-29T03:40:08;7.85;;;5.85;;
55575;SDS011;41437;45.478;9.116;2023-05-29T03:43:11;8.30;;;5.88;;
55575;SDS011;41437;45.478;9.116;2023-05-29T03:46:12;8.50;;;6.10;;
55575;SDS011;41437;45.478;9.116;2023-05-29T03:49:13;8.60;;;5.60;;
55575;SDS011;41437;45.478;9.116;2023-05-29T03:52:15;9.25;;;5.68;;
55575;SDS011;41437;45.478;9.116;2023-05-29T03:55:16;9.07;;;5.30;;
55575;SDS011;41437;45.478;9.116;2023-05-29T03:58:19;9.20;;;5.40;;
55575;SDS011;41437;45.478;9.116;2023-05-29T04:01:20;8.30;;;5.17;;
55575;SDS011;41437;45.478;9.116;2023-05-29T04:04:21;9.75;;;5.50;;
55575;SDS011;41437;45.478;9.116;2023-05-29T04:07:23;11.55;;;5.53;;
55575;SDS011;41437;45.478;9.116;2023-05-29T04:10:25;7.43;;;5.35;;
55575;SDS011;41437;45.478;9.116;2023-05-29T04:13:28;8.55;;;5.60;;
55575;SDS011;41437;45.478;9.116;2023-05-29T04:16:29;9.00;;;5.57;;
55575;SDS011;41437;45.478;9.116;2023-05-29T04:19:31;7.25;;;5.28;;
55575;SDS011;41437;45.478;9.116;2023-05-29T04:22:32;9.13;;;5.78;;
55575;SDS011;41437;45.478;9.116;2023-05-29T04:25:34;9.27;;;5.78;;
55575;SDS011;41437;45.478;9.116;2023-05-29T04:28:37;8.32;;;5.80;;
55575;SDS011;41437;45.478;9.116;2023-05-29T04:31:39;8.45;;;5.70;;
55575;SDS011;41437;45.478;9.116;2023-05-29T04:34:40;8.80;;;6.10;;
55575;SDS011;41437;45.478;9.116;2023-05-29T04:37:44;11.60;;;6.35;;
55575;SDS011;41437;45.478;9.116;2023-05-29T04:40:46;11.30;;;6.10;;
55575;SDS011;41437;45.478;9.116;2023-05-29T04:43:49;10.18;;;5.90;;
55575;SDS011;41437;45.478;9.116;2023-05-29T04:46:51;10.00;;;6.22;;
55575;SDS011;41437;45.478;9.116;2023-05-29T04:49:53;12.52;;;6.35;;
55575;SDS011;41437;45.478;9.116;2023-05-29T04:52:54;9.50;;;6.32;;
55575;SDS011;41437;45.478;9.116;2023-05-29T04:55:57;10.55;;;6.90;;
55575;SDS011;41437;45.478;9.116;2023-05-29T04:58:59;12.60;;;7.40;;
55575;SDS011;41437;45.478;9.116;2023-05-29T05:02:01;12.35;;;7.45;;
55575;SDS011;41437;45.478;9.116;2023-05-29T05:05:02;14.18;;;7.32;;
55575;SDS011;41437;45.478;9.116;2023-05-29T05:08:04;13.82;;;7.43;;
55575;SDS011;41437;45.478;9.116;2023-05-29T05:11:05;13.68;;;7.38;;
55575;SDS011;41437;45.478;9.116;2023-05-29T05:14:08;12.50;;;7.63;;
55575;SDS011;41437;45.478;9.116;2023-05-29T05:17:09;13.63;;;7.30;;
55575;SDS011;41437;45.478;9.116;2023-05-29T05:20:11;12.68;;;7.97;;
55575;SDS011;41437;45.478;9.116;2023-05-29T05:23:13;13.90;;;7.78;;
55575;SDS011;41437;45.478;9.116;2023-05-29T05:26:14;12.05;;;7.80;;
55575;SDS011;41437;45.478;9.116;2023-05-29T05:29:17;12.38;;;7.80;;
55575;SDS011;41437;45.478;9.116;2023-05-29T05:32:19;14.55;;;9.32;;
55575;SDS011;41437;45.478;9.116;2023-05-29T05:35:21;15.15;;;9.32;;
55575;SDS011;41437;45.478;9.116;2023-05-29T05:38:22;12.98;;;9.68;;
55575;SDS011;41437;45.478;9.116;2023-05-29T05:41:23;14.20;;;9.02;;
55575;SDS011;41437;45.478;9.116;2023-05-29T05:44:26;15.25;;;8.75;;
55575;SDS011;41437;45.478;9.116;2023-05-29T05:47:28;15.48;;;10.43;;
55575;SDS011;41437;45.478;9.116;2023-05-29T05:50:29;15.57;;;9.48;;
55575;SDS011;41437;45.478;9.116;2023-05-29T05:53:30;15.00;;;9.32;;
55575;SDS011;41437;45.478;9.116;2023-05-29T05:56:32;16.38;;;9.25;;
55575;SDS011;41437;45.478;9.116;2023-05-29T05:59:34;16.20;;;9.50;;
55575;SDS011;41437;45.478;9.116;2023-05-29T06:02:36;20.03;;;10.07;;
55575;SDS011;41437;45.478;9.116;2023-05-29T06:05:39;15.63;;;10.55;;
55575;SDS011;41437;45.478;9.116;2023-05-29T06:08:41;14.07;;;9.93;;
55575;SDS011;41437;45.478;9.116;2023-05-29T06:11:45;18.63;;;11.38;;
55575;SDS011;41437;45.478;9.116;2023-05-29T06:14:47;16.13;;;11.15;;
55575;SDS011;41437;45.478;9.116;2023-05-29T06:17:49;15.48;;;10.20;;
55575;SDS011;41437;45.478;9.116;2023-05-29T06:20:51;14.50;;;9.38;;
55575;SDS011;41437;45.478;9.116;2023-05-29T06:23:53;14.32;;;9.32;;
55575;SDS011;41437;45.478;9.116;2023-05-29T06:26:54;15.77;;;10.00;;
55575;SDS011;41437;45.478;9.116;2023-05-29T06:29:57;12.82;;;8.57;;
55575;SDS011;41437;45.478;9.116;2023-05-29T06:32:58;15.33;;;9.50;;
55575;SDS011;41437;45.478;9.116;2023-05-29T06:36:00;16.25;;;8.88;;
55575;SDS011;41437;45.478;9.116;2023-05-29T06:39:01;15.35;;;8.68;;
55575;SDS011;41437;45.478;9.116;2023-05-29T06:42:03;14.80;;;8.18;;
55575;SDS011;41437;45.478;9.116;2023-05-29T06:45:06;16.80;;;8.15;;
55575;SDS011;41437;45.478;9.116;2023-05-29T06:51:10;21.05;;;8.43;;
55575;SDS011;41437;45.478;9.116;2023-05-29T06:54:12;17.77;;;10.35;;
55575;SDS011;41437;45.478;9.116;2023-05-29T06:57:14;17.80;;;9.43;;
55575;SDS011;41437;45.478;9.116;2023-05-29T07:00:17;14.30;;;9.98;;
55575;SDS011;41437;45.478;9.116;2023-05-29T07:03:18;18.08;;;9.82;;
55575;SDS011;41437;45.478;9.116;2023-05-29T07:06:20;15.73;;;9.40;;
55575;SDS011;41437;45.478;9.116;2023-05-29T07:09:22;16.48;;;9.23;;
55575;SDS011;41437;45.478;9.116;2023-05-29T07:12:24;16.73;;;8.57;;
55575;SDS011;41437;45.478;9.116;2023-05-29T07:15:27;16.80;;;8.70;;
55575;SDS011;41437;45.478;9.116;2023-05-29T07:18:28;17.23;;;10.88;;
55575;SDS011;41437;45.478;9.116;2023-05-29T07:21:30;13.65;;;8.48;;
55575;SDS011;41437;45.478;9.116;2023-05-29T07:24:32;12.97;;;9.83;;
55575;SDS011;41437;45.478;9.116;2023-05-29T07:27:34;18.35;;;9.35;;
55575;SDS011;41437;45.478;9.116;2023-05-29T07:30:37;16.83;;;10.05;;
55575;SDS011;41437;45.478;9.116;2023-05-29T07:33:39;17.23;;;10.25;;
55575;SDS011;41437;45.478;9.116;2023-05-29T07:36:55;16.65;;;10.40;;
55575;SDS011;41437;45.478;9.116;2023-05-29T07:39:57;13.93;;;10.35;;
55575;SDS011;41437;45.478;9.116;2023-05-29T07:42:58;14.70;;;11.02;;
55575;SDS011;41437;45.478;9.116;2023-05-29T07:46:01;18.10;;;8.25;;
55575;SDS011;41437;45.478;9.116;2023-05-29T07:49:03;14.80;;;9.70;;
55575;SDS011;41437;45.478;9.116;2023-05-29T07:52:04;14.10;;;9.60;;
55575;SDS011;41437;45.478;9.116;2023-05-29T07:55:06;15.52;;;10.35;;
55575;SDS011;41437;45.478;9.116;2023-05-29T07:58:07;15.35;;;10.63;;
55575;SDS011;41437;45.478;9.116;2023-05-29T08:04:14;16.08;;;10.63;;
55575;SDS011;41437;45.478;9.116;2023-05-29T08:07:15;13.93;;;10.00;;
55575;SDS011;41437;45.478;9.116;2023-05-29T08:10:17;17.00;;;10.63;;
55575;SDS011;41437;45.478;9.116;2023-05-29T08:13:19;13.65;;;9.65;;
55575;SDS011;41437;45.478;9.116;2023-05-29T08:16:20;14.10;;;10.38;;
55575;SDS011;41437;45.478;9.116;2023-05-29T08:19:23;14.32;;;9.18;;
55575;SDS011;41437;45.478;9.116;2023-05-29T08:22:27;13.20;;;9.38;;
55575;SDS011;41437;45.478;9.116;2023-05-29T08:25:29;15.70;;;10.05;;
55575;SDS011;41437;45.478;9.116;2023-05-29T08:28:30;15.88;;;10.27;;
55575;SDS011;41437;45.478;9.116;2023-05-29T08:31:32;15.73;;;10.77;;
55575;SDS011;41437;45.478;9.116;2023-05-29T08:34:35;18.25;;;10.15;;
55575;SDS011;41437;45.478;9.116;2023-05-29T08:37:36;14.70;;;9.57;;
55575;SDS011;41437;45.478;9.116;2023-05-29T08:40:37;15.77;;;9.90;;
55575;SDS011;41437;45.478;9.116;2023-05-29T08:43:39;14.30;;;10.63;;
55575;SDS011;41437;45.478;9.116;2023-05-29T08:46:42;13.50;;;10.18;;
55575;SDS011;41437;45.478;9.116;2023-05-29T08:49:48;12.75;;;8.45;;
55575;SDS011;41437;45.478;9.116;2023-05-29T08:52:52;12.95;;;10.43;;
55575;SDS011;41437;45.478;9.116;2023-05-29T08:55:54;15.38;;;11.10;;
55575;SDS011;41437;45.478;9.116;2023-05-29T08:58:57;13.90;;;10.63;;
55575;SDS011;41437;45.478;9.116;2023-05-29T09:01:59;15.45;;;10.07;;
55575;SDS011;41437;45.478;9.116;2023-05-29T09:05:02;14.18;;;9.50;;
55575;SDS011;41437;45.478;9.116;2023-05-29T09:11:06;13.75;;;10.35;;
55575;SDS011;41437;45.478;9.116;2023-05-29T09:14:10;13.20;;;10.38;;
55575;SDS011;41437;45.478;9.116;2023-05-29T09:17:12;15.80;;;11.50;;
55575;SDS011;41437;45.478;9.116;2023-05-29T09:20:16;16.20;;;12.65;;
55575;SDS011;41437;45.478;9.116;2023-05-29T09:23:18;11.80;;;9.18;;
55575;SDS011;41437;45.478;9.116;2023-05-29T09:26:20;15.15;;;11.93;;
55575;SDS011;41437;45.478;9.116;2023-05-29T09:29:23;17.20;;;9.70;;
55575;SDS011;41437;45.478;9.116;2023-05-29T09:32:24;18.50;;;12.73;;
55575;SDS011;41437;45.478;9.116;2023-05-29T09:35:33;15.00;;;11.82;;
55575;SDS011;41437;45.478;9.116;2023-05-29T09:38:35;15.07;;;11.70;;
55575;SDS011;41437;45.478;9.116;2023-05-29T09:41:41;13.63;;;10.17;;
55575;SDS011;41437;45.478;9.116;2023-05-29T09:44:45;14.25;;;9.93;;
55575;SDS011;41437;45.478;9.116;2023-05-29T09:47:50;15.77;;;12.40;;
55575;SDS011;41437;45.478;9.116;2023-05-29T09:50:53;13.02;;;9.73;;
55575;SDS011;41437;45.478;9.116;2023-05-29T09:53:57;14.95;;;10.45;;
55575;SDS011;41437;45.478;9.116;2023-05-29T09:57:01;17.08;;;13.02;;
55575;SDS011;41437;45.478;9.116;2023-05-29T10:00:04;16.35;;;12.45;;
55575;SDS011;41437;45.478;9.116;2023-05-29T10:03:13;16.83;;;11.88;;
55575;SDS011;41437;45.478;9.116;2023-05-29T10:06:16;12.48;;;9.13;;
55575;SDS011;41437;45.478;9.116;2023-05-29T10:09:19;15.32;;;10.93;;
55575;SDS011;41437;45.478;9.116;2023-05-29T10:12:22;12.02;;;9.23;;
55575;SDS011;41437;45.478;9.116;2023-05-29T10:15:23;15.07;;;11.77;;
55575;SDS011;41437;45.478;9.116;2023-05-29T10:18:31;14.00;;;10.90;;
55575;SDS011;41437;45.478;9.116;2023-05-29T10:21:35;15.30;;;11.15;;
55575;SDS011;41437;45.478;9.116;2023-05-29T10:24:38;14.27;;;10.50;;
55575;SDS011;41437;45.478;9.116;2023-05-29T10:27:40;15.32;;;10.85;;
55575;SDS011;41437;45.478;9.116;2023-05-29T10:30:42;14.48;;;11.48;;
55575;SDS011;41437;45.478;9.116;2023-05-29T10:33:52;15.18;;;11.50;;
55575;SDS011;41437;45.478;9.116;2023-05-29T10:37:01;13.63;;;11.07;;
55575;SDS011;41437;45.478;9.116;2023-05-29T10:40:06;14.48;;;12.02;;
55575;SDS011;41437;45.478;9.116;2023-05-29T10:49:48;16.23;;;12.35;;
55575;SDS011;41437;45.478;9.116;2023-05-29T10:52:52;16.45;;;11.82;;
55575;SDS011;41437;45.478;9.116;2023-05-29T10:55:54;15.35;;;11.80;;
55575;SDS011;41437;45.478;9.116;2023-05-29T10:58:55;13.60;;;10.50;;
55575;SDS011;41437;45.478;9.116;2023-05-29T11:01:57;13.82;;;11.93;;
55575;SDS011;41437;45.478;9.116;2023-05-29T11:05:06;14.25;;;11.40;;
55575;SDS011;41437;45.478;9.116;2023-05-29T11:08:22;19.13;;;12.45;;
55575;SDS011;41437;45.478;9.116;2023-05-29T11:11:30;16.13;;;11.95;;
55575;SDS011;41437;45.478;9.116;2023-05-29T11:14:38;15.27;;;11.93;;
55575;SDS011;41437;45.478;9.116;2023-05-29T11:17:45;13.45;;;10.05;;
55575;SDS011;41437;45.478;9.116;2023-05-29T11:20:49;13.80;;;9.98;;
55575;SDS011;41437;45.478;9.116;2023-05-29T11:23:55;15.45;;;11.13;;
55575;SDS011;41437;45.478;9.116;2023-05-29T11:26:58;16.27;;;11.18;;
55575;SDS011;41437;45.478;9.116;2023-05-29T11:30:05;16.55;;;11.93;;
55575;SDS011;41437;45.478;9.116;2023-05-29T11:33:07;14.57;;;11.25;;
55575;SDS011;41437;45.478;9.116;2023-05-29T11:36:10;16.52;;;10.82;;
55575;SDS011;41437;45.478;9.116;2023-05-29T11:39:13;15.38;;;12.45;;
55575;SDS011;41437;45.478;9.116;2023-05-29T11:42:15;15.68;;;12.05;;
55575;SDS011;41437;45.478;9.116;2023-05-29T11:45:17;16.15;;;11.10;;
55575;SDS011;41437;45.478;9.116;2023-05-29T11:48:19;13.98;;;10.35;;
55575;SDS011;41437;45.478;9.116;2023-05-29T11:51:21;11.83;;;9.17;;
55575;SDS011;41437;45.478;9.116;2023-05-29T11:54:24;15.50;;;9.90;;
55575;SDS011;41437;45.478;9.116;2023-05-29T11:57:26;13.85;;;9.57;;
55575;SDS011;41437;45.478;9.116;2023-05-29T12:00:30;11.77;;;7.95;;
55575;SDS011;41437;45.478;9.116;2023-05-29T12:03:36;13.23;;;8.68;;
55575;SDS011;41437;45.478;9.116;2023-05-29T12:06:38;11.88;;;8.30;;
55575;SDS011;41437;45.478;9.116;2023-05-29T12:09:45;11.82;;;7.88;;
55575;SDS011;41437;45.478;9.116;2023-05-29T12:12:48;12.48;;;9.38;;
55575;SDS011;41437;45.478;9.116;2023-05-29T12:15:51;13.40;;;8.43;;
55575;SDS011;41437;45.478;9.116;2023-05-29T12:18:53;10.95;;;7.45;;
55575;SDS011;41437;45.478;9.116;2023-05-29T12:21:56;12.50;;;8.07;;
55575;SDS011;41437;45.478;9.116;2023-05-29T12:25:04;12.82;;;8.48;;
55575;SDS011;41437;45.478;9.116;2023-05-29T12:28:05;14.70;;;8.90;;
55575;SDS011;41437;45.478;9.116;2023-05-29T12:31:07;12.75;;;8.63;;
55575;SDS011;41437;45.478;9.116;2023-05-29T12:34:08;11.35;;;7.20;;
55575;SDS011;41437;45.478;9.116;2023-05-29T12:37:10;11.00;;;7.60;;
55575;SDS011;41437;45.478;9.116;2023-05-29T12:40:15;11.40;;;6.60;;
55575;SDS011;41437;45.478;9.116;2023-05-29T12:46:18;9.15;;;6.38;;
55575;SDS011;41437;45.478;9.116;2023-05-29T12:49:19;13.10;;;7.00;;
55575;SDS011;41437;45.478;9.116;2023-05-29T12:52:21;12.10;;;7.53;;
55575;SDS011;41437;45.478;9.116;2023-05-29T12:55:26;11.00;;;7.15;;
55575;SDS011;41437;45.478;9.116;2023-05-29T12:58:28;9.88;;;7.40;;
55575;SDS011;41437;45.478;9.116;2023-05-29T13:01:30;11.93;;;7.20;;
55575;SDS011;41437;45.478;9.116;2023-05-29T13:04:31;10.73;;;7.18;;
55575;SDS011;41437;45.478;9.116;2023-05-29T13:07:33;10.73;;;7.38;;
55575;SDS011;41437;45.478;9.116;2023-05-29T13:10:36;15.30;;;9.20;;
55575;SDS011;41437;45.478;9.116;2023-05-29T13:13:37;13.57;;;8.05;;
55575;SDS011;41437;45.478;9.116;2023-05-29T13:16:39;13.15;;;7.82;;
55575;SDS011;41437;45.478;9.116;2023-05-29T13:19:40;13.07;;;8.18;;
55575;SDS011;41437;45.478;9.116;2023-05-29T13:22:43;15.95;;;7.90;;
55575;SDS011;41437;45.478;9.116;2023-05-29T13:25:46;11.10;;;7.85;;
55575;SDS011;41437;45.478;9.116;2023-05-29T13:28:50;15.05;;;7.25;;
55575;SDS011;41437;45.478;9.116;2023-05-29T13:31:51;14.48;;;8.38;;
55575;SDS011;41437;45.478;9.116;2023-05-29T13:34:53;11.20;;;7.90;;
55575;SDS011;41437;45.478;9.116;2023-05-29T13:37:54;11.65;;;7.53;;
55575;SDS011;41437;45.478;9.116;2023-05-29T13:40:57;9.77;;;6.80;;
55575;SDS011;41437;45.478;9.116;2023-05-29T13:43:58;11.63;;;7.30;;
55575;SDS011;41437;45.478;9.116;2023-05-29T13:47:01;12.30;;;7.28;;
55575;SDS011;41437;45.478;9.116;2023-05-29T13:50:03;13.50;;;7.68;;
55575;SDS011;41437;45.478;9.116;2023-05-29T13:53:04;11.85;;;7.63;;
55575;SDS011;41437;45.478;9.116;2023-05-29T13:56:07;12.63;;;7.22;;
55575;SDS011;41437;45.478;9.116;2023-05-29T13:59:08;10.63;;;7.97;;
55575;SDS011;41437;45.478;9.116;2023-05-29T14:02:10;11.77;;;8.32;;
55575;SDS011;41437;45.478;9.116;2023-05-29T14:05:12;15.10;;;7.60;;
55575;SDS011;41437;45.478;9.116;2023-05-29T14:08:13;11.95;;;8.02;;
55575;SDS011;41437;45.478;9.116;2023-05-29T14:11:16;11.07;;;8.13;;
55575;SDS011;41437;45.478;9.116;2023-05-29T14:14:18;11.80;;;8.18;;
55575;SDS011;41437;45.478;9.116;2023-05-29T14:17:19;12.30;;;8.85;;
55575;SDS011;41437;45.478;9.116;2023-05-29T14:20:21;13.95;;;8.60;;
55575;SDS011;41437;45.478;9.116;2023-05-29T14:23:22;13.23;;;8.75;;
55575;SDS011;41437;45.478;9.116;2023-05-29T14:26:25;13.10;;;9.75;;
55575;SDS011;41437;45.478;9.116;2023-05-29T14:32:28;14.50;;;10.73;;
55575;SDS011;41437;45.478;9.116;2023-05-29T14:35:29;13.75;;;9.65;;
55575;SDS011;41437;45.478;9.116;2023-05-29T14:38:31;15.25;;;10.20;;
55575;SDS011;41437;45.478;9.116;2023-05-29T14:41:34;14.70;;;10.20;;
55575;SDS011;41437;45.478;9.116;2023-05-29T14:44:35;13.48;;;9.35;;
55575;SDS011;41437;45.478;9.116;2023-05-29T14:47:37;12.43;;;11.13;;
55575;SDS011;41437;45.478;9.116;2023-05-29T14:50:39;15.43;;;10.93;;
55575;SDS011;41437;45.478;9.116;2023-05-29T14:53:40;13.77;;;10.35;;
55575;SDS011;41437;45.478;9.116;2023-05-29T14:56:43;15.80;;;12.02;;
55575;SDS011;41437;45.478;9.116;2023-05-29T14:59:44;18.05;;;12.73;;
55575;SDS011;41437;45.478;9.116;2023-05-29T15:02:46;17.80;;;11.55;;
55575;SDS011;41437;45.478;9.116;2023-05-29T15:05:47;15.35;;;10.88;;
55575;SDS011;41437;45.478;9.116;2023-05-29T15:08:49;15.02;;;11.82;;
55575;SDS011;41437;45.478;9.116;2023-05-29T15:11:52;17.15;;;11.93;;
55575;SDS011;41437;45.478;9.116;2023-05-29T15:14:53;15.65;;;12.48;;
55575;SDS011;41437;45.478;9.116;2023-05-29T15:17:55;14.52;;;11.90;;
55575;SDS011;41437;45.478;9.116;2023-05-29T15:20:56;15.77;;;10.70;;
55575;SDS011;41437;45.478;9.116;2023-05-29T15:23:59;15.52;;;11.30;;
55575;SDS011;41437;45.478;9.116;2023-05-29T15:27:02;14.25;;;10.13;;
55575;SDS011;41437;45.478;9.116;2023-05-29T15:33:05;14.07;;;11.27;;
55575;SDS011;41437;45.478;9.116;2023-05-29T15:36:09;13.95;;;10.52;;
55575;SDS011;41437;45.478;9.116;2023-05-29T15:39:11;15.40;;;9.70;;
55575;SDS011;41437;45.478;9.116;2023-05-29T15:42:14;16.60;;;11.32;;
55575;SDS011;41437;45.478;9.116;2023-05-29T15:45:15;16.00;;;10.88;;
55575;SDS011;41437;45.478;9.116;2023-05-29T15:48:16;13.73;;;9.73;;
55575;SDS011;41437;45.478;9.116;2023-05-29T15:51:18;12.05;;;8.93;;
55575;SDS011;41437;45.478;9.116;2023-05-29T15:54:19;11.82;;;8.13;;
55575;SDS011;41437;45.478;9.116;2023-05-29T15:57:22;12.18;;;8.27;;
55575;SDS011;41437;45.478;9.116;2023-05-29T16:00:24;12.75;;;9.57;;
55575;SDS011;41437;45.478;9.116;2023-05-29T16:03:25;13.30;;;9.70;;
55575;SDS011;41437;45.478;9.116;2023-05-29T16:06:26;11.50;;;9.13;;
55575;SDS011;41437;45.478;9.116;2023-05-29T16:09:28;13.30;;;10.35;;
55575;SDS011;41437;45.478;9.116;2023-05-29T16:12:31;14.50;;;10.00;;
55575;SDS011;41437;45.478;9.116;2023-05-29T16:18:34;12.50;;;9.88;;
55575;SDS011;41437;45.478;9.116;2023-05-29T16:21:35;12.52;;;10.48;;
55575;SDS011;41437;45.478;9.116;2023-05-29T16:24:37;15.07;;;10.07;;
55575;SDS011;41437;45.478;9.116;2023-05-29T16:27:40;12.05;;;8.93;;
55575;SDS011;41437;45.478;9.116;2023-05-29T16:30:42;13.50;;;8.82;;
55575;SDS011;41437;45.478;9.116;2023-05-29T16:33:43;13.20;;;9.10;;
55575;SDS011;41437;45.478;9.116;2023-05-29T16:36:45;12.10;;;8.40;;
55575;SDS011;41437;45.478;9.116;2023-05-29T16:39:46;13.27;;;9.30;;
55575;SDS011;41437;45.478;9.116;2023-05-29T16:42:49;11.38;;;8.75;;
55575;SDS011;41437;45.478;9.116;2023-05-29T16:45:51;11.18;;;8.35;;
55575;SDS011;41437;45.478;9.116;2023-05-29T16:48:52;12.18;;;9.38;;
55575;SDS011;41437;45.478;9.116;2023-05-29T16:51:54;13.68;;;8.73;;
55575;SDS011;41437;45.478;9.116;2023-05-29T16:54:55;14.82;;;9.75;;
55575;SDS011;41437;45.478;9.116;2023-05-29T16:58:01;11.98;;;9.18;;
55575;SDS011;41437;45.478;9.116;2023-05-29T17:04:25;13.68;;;9.68;;
55575;SDS011;41437;45.478;9.116;2023-05-29T17:07:29;13.38;;;9.50;;
55575;SDS011;41437;45.478;9.116;2023-05-29T17:10:31;12.82;;;8.18;;
55575;SDS011;41437;45.478;9.116;2023-05-29T17:13:34;14.10;;;9.43;;
55575;SDS011;41437;45.478;9.116;2023-05-29T17:16:36;13.60;;;9.23;;
55575;SDS011;41437;45.478;9.116;2023-05-29T17:19:38;14.60;;;9.20;;
55575;SDS011;41437;45.478;9.116;2023-05-29T17:22:39;12.50;;;8.85;;
55575;SDS011;41437;45.478;9.116;2023-05-29T17:25:41;14.25;;;9.45;;
55575;SDS011;41437;45.478;9.116;2023-05-29T17:28:43;11.60;;;8.75;;
55575;SDS011;41437;45.478;9.116;2023-05-29T17:31:45;12.48;;;8.00;;
55575;SDS011;41437;45.478;9.116;2023-05-29T17:34:46;12.60;;;8.45;;
55575;SDS011;41437;45.478;9.116;2023-05-29T17:37:51;11.45;;;8.23;;
55575;SDS011;41437;45.478;9.116;2023-05-29T17:40:53;12.35;;;8.55;;
55575;SDS011;41437;45.478;9.116;2023-05-29T17:43:56;15.57;;;8.95;;
55575;SDS011;41437;45.478;9.116;2023-05-29T17:46:57;13.10;;;10.45;;
55575;SDS011;41437;45.478;9.116;2023-05-29T17:49:59;12.68;;;9.00;;
55575;SDS011;41437;45.478;9.116;2023-05-29T17:53:00;13.38;;;8.48;;
55575;SDS011;41437;45.478;9.116;2023-05-29T17:56:02;12.77;;;8.88;;
55575;SDS011;41437;45.478;9.116;2023-05-29T17:59:05;12.55;;;8.25;;
55575;SDS011;41437;45.478;9.116;2023-05-29T18:02:06;11.50;;;7.75;;
55575;SDS011;41437;45.478;9.116;2023-05-29T18:05:09;11.25;;;8.20;;
55575;SDS011;41437;45.478;9.116;2023-05-29T18:08:10;10.48;;;7.72;;
55575;SDS011;41437;45.478;9.116;2023-05-29T18:11:12;10.95;;;7.80;;
55575;SDS011;41437;45.478;9.116;2023-05-29T18:14:15;12.98;;;8.32;;
55575;SDS011;41437;45.478;9.116;2023-05-29T18:17:16;12.75;;;7.85;;
55575;SDS011;41437;45.478;9.116;2023-05-29T18:20:18;15.02;;;8.15;;
55575;SDS011;41437;45.478;9.116;2023-05-29T18:23:20;25.02;;;8.40;;
55575;SDS011;41437;45.478;9.116;2023-05-29T18:26:22;19.45;;;8.00;;
55575;SDS011;41437;45.478;9.116;2023-05-29T18:29:25;12.30;;;7.38;;
55575;SDS011;41437;45.478;9.116;2023-05-29T18:32:32;14.05;;;7.43;;
55575;SDS011;41437;45.478;9.116;2023-05-29T18:35:34;10.45;;;7.57;;